Terminal Aerodrome Forecast
Issued by NWS Newport/Morehead City, NC

Home | Current Version | Previous Version | Text Only | Print | Product List | Glossary Off
Versions: 1 2 3 4 5 6 7 8 9 10 11 12 13 14 15 16 17 18 19 20 21 22 23 24 25 26 27 28 29 30 31 32 33 34 35 36 37 38 39

000
FTUS42 KMHX 240700 AAC
TAFEWN
TAF AMD
KEWN 240711Z 2407/2506 13005KT 3/4SM -RA BR BKN008 BKN090 OVC110
     FM240900 16005KT 2SM -DZ BR OVC003
     FM241500 18010G15KT 3SM -DZ BR OVC004
     FM241800 18015G20KT 4SM BR OVC007=

USA.gov is the U.S. government's official web portal to all federal, state and local government web resources and services.